CYDF/YDF METAR and TAF weather

Enter ICAO airport designator
Station Type Date Time Source
CYDF METAR 2020/07/12 00:00 UTC NOAA

CYDF 120000Z 23006KT 190V250 15SM FEW150 SCT210 23/15 A2996 RMK AC2CI1 LAST STFD OBS/NEXT 120830 UTC SLP146 DENSITY ALT 1000FT


Station Type Date Time Source
CYDF Decoded METAR 2020/07/12 00:00 UTC NOAA

Deer Lake, Nfld., Canada (CYDF) 49-13N 057-24W 22M
Jul 11, 2020 - 08:00 PM EDT / 2020.07.12 0000 UTC
Wind: from the SW (230 degrees) at 7 MPH (6 KT) (direction variable):0
Visibility: 15 mile(s):0
Sky conditions: partly cloudy
Temperature: 73 F (23 C)
Dew Point: 59 F (15 C)
Relative Humidity: 60%
Pressure (altimeter): 29.96 in. Hg (1014 hPa)
ob: CYDF 120000Z 23006KT 190V250 15SM FEW150 SCT210 23/15 A2996 RMK AC2CI1 LAST STFD OBS/NEXT 120830 UTC SLP146 DENSITY ALT 1000FT
cycle: 0

Station Type Date Time Source
CYDF TAF 2020/07/11 20:00 UTC NOAA

TAF CYDF 111938Z 1120/1124 21010KT P6SM FEW050 SCT200
RMK NXT FCST WILL BE ISSUED AT 121045Z

Example: see airport list